createdAt,value
2023-01-11T00:01:08.238Z,96942.00
2023-01-11T00:03:36.858Z,96946.21
2023-01-11T00:06:05.103Z,96954.60
2023-01-11T00:08:33.273Z,96950.23
2023-01-11T00:11:02.357Z,96951.00
2023-01-11T00:13:31.538Z,96955.25
2023-01-11T00:16:06.557Z,96961.91
2023-01-11T00:18:36.111Z,96969.86
2023-01-11T00:21:05.757Z,96979.09
2023-01-11T00:23:37.793Z,96982.46
2023-01-11T00:26:10.999Z,96975.61
2023-01-11T00:28:39.263Z,96979.96
2023-01-11T00:31:08.248Z,96992.38
2023-01-11T00:33:36.148Z,97003.65
2023-01-11T00:36:04.394Z,97014.71
2023-01-11T00:38:44.429Z,97018.57
2023-01-11T00:41:34.745Z,97021.37
2023-01-11T00:44:23.390Z,97015.21
2023-01-11T00:47:10.514Z,97014.29
2023-01-11T00:49:39.215Z,97016.42
2023-01-11T00:52:09.466Z,97020.01
2023-01-11T00:54:39.841Z,97025.58
2023-01-11T00:57:09.044Z,97021.60
2023-01-11T00:59:39.475Z,97016.11
2023-01-11T01:02:09.621Z,97021.09
2023-01-11T01:04:39.014Z,97027.64
2023-01-11T01:07:07.117Z,97027.20
2023-01-11T01:09:35.508Z,97022.70
2023-01-11T01:12:03.978Z,97021.48
2023-01-11T01:14:33.504Z,97017.02
2023-01-11T01:17:10.111Z,97013.32
2023-01-11T01:19:39.193Z,97021.44
2023-01-11T01:22:08.140Z,97023.27
2023-01-11T01:24:36.359Z,97032.45
2023-01-11T01:27:04.437Z,97027.48
2023-01-11T01:29:32.419Z,97026.30
2023-01-11T01:32:00.684Z,97025.13
2023-01-11T01:34:29.163Z,97034.63
2023-01-11T01:36:57.331Z,97037.67
2023-01-11T01:39:25.511Z,97033.12
2023-01-11T01:41:53.505Z,97037.35
2023-01-11T01:44:58.311Z,97040.58
2023-01-11T01:47:33.063Z,97047.66
2023-01-11T01:50:06.339Z,97048.27
2023-01-11T01:52:35.857Z,97047.08
2023-01-11T01:55:10.575Z,97041.46
2023-01-11T01:57:43.971Z,97044.88
2023-01-11T02:00:13.264Z,97053.89
2023-01-11T02:02:44.645Z,97062.63
2023-01-11T02:05:15.863Z,97068.91
2023-01-11T02:07:45.329Z,97069.51
2023-01-11T02:10:20.091Z,97067.95
2023-01-11T02:13:01.281Z,97064.58
2023-01-11T02:15:29.740Z,97072.05
2023-01-11T02:17:57.847Z,97074.85
2023-01-11T02:20:31.645Z,97073.04
2023-01-11T02:23:24.085Z,97075.52
2023-01-11T02:26:07.174Z,97076.65
2023-01-11T02:28:43.875Z,97080.84
2023-01-11T02:31:21.603Z,97084.19
2023-01-11T02:34:11.251Z,97084.68
2023-01-11T02:36:48.645Z,97089.14
2023-01-11T02:39:22.482Z,97091.19
2023-01-11T02:42:12.331Z,97090.54
2023-01-11T02:45:07.212Z,97089.81
2023-01-11T02:47:49.516Z,97090.36
2023-01-11T02:50:39.290Z,97096.16
2023-01-11T02:53:22.092Z,97097.68
2023-01-11T02:55:54.727Z,97096.88
2023-01-11T02:58:27.309Z,97101.17
2023-01-11T03:00:58.541Z,97107.95
2023-01-11T03:03:30.556Z,97103.73
2023-01-11T03:06:24.518Z,97108.25
2023-01-11T03:09:04.611Z,97111.20
2023-01-11T03:12:14.340Z,97106.29
2023-01-11T03:15:21.990Z,97102.64
2023-01-11T03:18:07.021Z,97100.82
2023-01-11T03:20:39.646Z,97104.41
2023-01-11T03:23:21.817Z,97103.35
2023-01-11T03:26:14.382Z,97108.89
2023-01-11T03:29:28.061Z,97107.41
2023-01-11T03:32:22.335Z,97115.60
2023-01-11T03:35:28.239Z,97113.95
2023-01-11T03:38:20.889Z,97117.57
2023-01-11T03:40:55.832Z,97117.73
2023-01-11T03:43:25.764Z,97099.70
2023-01-11T03:46:06.714Z,97109.31
2023-01-11T03:48:55.225Z,97121.33
2023-01-11T03:51:27.983Z,97117.75
2023-01-11T03:54:04.949Z,97128.17
2023-01-11T03:56:40.088Z,97122.19
2023-01-11T03:59:08.050Z,97122.02
2023-01-11T04:01:37.871Z,97134.26
2023-01-11T04:04:06.029Z,97138.12
2023-01-11T04:06:36.972Z,97147.46
2023-01-11T04:09:06.205Z,97153.70
2023-01-11T04:11:34.151Z,97146.51
2023-01-11T04:14:02.559Z,97134.73
2023-01-11T04:16:30.543Z,97131.65
2023-01-11T04:18:58.512Z,97139.86
2023-01-11T04:21:26.523Z,97141.79
2023-01-11T04:23:54.761Z,97142.39
2023-01-11T04:26:22.692Z,97136.45
2023-01-11T04:28:52.227Z,97137.21
2023-01-11T04:31:22.173Z,97149.86
2023-01-11T04:33:50.585Z,97152.87
2023-01-11T04:36:18.531Z,97140.88
2023-01-11T04:38:46.601Z,97142.20
2023-01-11T04:41:33.010Z,97146.35
2023-01-11T04:44:01.074Z,97155.40
2023-01-11T04:46:29.077Z,97161.02
2023-01-11T04:48:57.147Z,97162.02
2023-01-11T04:51:25.082Z,97166.04
2023-01-11T04:53:53.012Z,97169.73
2023-01-11T04:56:20.950Z,97172.10
2023-01-11T04:58:49.037Z,97171.23
2023-01-11T05:01:18.903Z,97172.45
2023-01-11T05:03:47.530Z,97174.52
2023-01-11T05:06:15.699Z,97170.54
2023-01-11T05:08:47.784Z,97169.69
2023-01-11T05:11:17.604Z,97169.05
2023-01-11T05:13:45.639Z,97177.39
2023-01-11T05:16:20.336Z,97175.38
2023-01-11T05:18:50.887Z,97177.76
2023-01-11T05:21:21.701Z,97181.05
2023-01-11T05:23:50.054Z,97190.66
2023-01-11T05:26:23.709Z,97196.78
2023-01-11T05:28:52.823Z,97202.96
2023-01-11T05:31:21.511Z,97217.06
2023-01-11T05:33:49.635Z,97217.42
2023-01-11T05:36:19.830Z,97218.25
2023-01-11T05:38:49.913Z,97225.30
2023-01-11T05:41:20.203Z,97234.05
2023-01-11T05:44:08.581Z,97236.64
2023-01-11T05:46:39.017Z,97240.67
2023-01-11T05:49:08.466Z,97241.08
2023-01-11T05:51:38.306Z,97241.98
2023-01-11T05:54:07.997Z,97243.66
2023-01-11T05:56:36.079Z,97242.55
2023-01-11T05:59:04.359Z,97242.71
2023-01-11T06:01:32.290Z,97245.17
2023-01-11T06:04:00.351Z,97243.25
2023-01-11T06:06:28.446Z,97243.33
2023-01-11T06:08:56.476Z,97244.63
2023-01-11T06:11:24.359Z,97242.42
2023-01-11T06:13:52.319Z,97250.89
2023-01-11T06:16:22.740Z,97254.42
2023-01-11T06:18:52.894Z,97258.49
2023-01-11T06:21:22.002Z,97264.84
2023-01-11T06:23:53.344Z,97268.06
2023-01-11T06:26:22.671Z,97268.54
2023-01-11T06:28:51.237Z,97275.48
2023-01-11T06:31:20.122Z,97273.93
2023-01-11T06:33:48.347Z,97277.56
2023-01-11T06:36:16.565Z,97278.36
2023-01-11T06:38:44.511Z,97284.19
2023-01-11T06:41:13.260Z,97292.14
2023-01-11T06:43:42.157Z,97291.05
2023-01-11T06:46:14.417Z,97298.15
2023-01-11T06:48:43.502Z,97298.10
2023-01-11T06:51:12.210Z,97298.11
2023-01-11T06:53:42.342Z,97305.53
2023-01-11T06:56:15.605Z,97307.87
2023-01-11T06:58:46.783Z,97307.38
2023-01-11T07:01:15.430Z,97308.02
2023-01-11T07:03:45.375Z,97309.52
2023-01-11T07:06:14.178Z,97317.16
2023-01-11T07:08:43.000Z,97322.87
2023-01-11T07:11:11.399Z,97324.54
2023-01-11T07:13:39.515Z,97327.09
2023-01-11T07:16:07.744Z,97334.48
2023-01-11T07:18:35.799Z,97338.52
2023-01-11T07:21:03.940Z,97345.58
2023-01-11T07:23:31.985Z,97350.60
2023-01-11T07:26:00.136Z,97352.87
2023-01-11T07:28:30.547Z,97361.08
2023-01-11T07:30:59.960Z,97370.73
2023-01-11T07:33:28.616Z,97374.48
2023-01-11T07:35:58.245Z,97376.09
2023-01-11T07:38:29.398Z,97372.45
2023-01-11T07:40:57.315Z,97371.85
2023-01-11T07:43:25.489Z,97361.98
2023-01-11T07:45:53.736Z,97361.18
2023-01-11T07:48:26.367Z,97366.22
2023-01-11T07:50:55.298Z,97370.85
2023-01-11T07:53:26.005Z,97363.89
2023-01-11T07:55:57.732Z,97365.39
2023-01-11T07:58:25.908Z,97362.05
2023-01-11T08:00:53.952Z,97361.33
2023-01-11T08:03:22.504Z,97366.09
2023-01-11T08:05:52.270Z,97363.45
2023-01-11T08:08:20.972Z,97366.14
2023-01-11T08:11:12.314Z,97365.27
2023-01-11T08:13:58.846Z,97370.13
2023-01-11T08:16:27.571Z,97372.88
2023-01-11T08:18:55.706Z,97372.56
2023-01-11T08:21:23.646Z,97381.88
2023-01-11T08:23:54.349Z,97388.70
2023-01-11T08:26:26.069Z,97388.45
2023-01-11T08:28:54.758Z,97394.10
2023-01-11T08:31:23.065Z,97397.90
2023-01-11T08:33:51.546Z,97403.41
2023-01-11T08:36:19.465Z,97402.86
2023-01-11T08:38:47.662Z,97407.96
2023-01-11T08:41:15.647Z,97411.84
2023-01-11T08:43:43.789Z,97410.63
2023-01-11T08:46:12.254Z,97417.11
2023-01-11T08:48:40.235Z,97424.38
2023-01-11T08:51:08.866Z,97428.27
2023-01-11T08:53:37.863Z,97436.95
2023-01-11T08:56:06.549Z,97443.94
2023-01-11T08:58:35.611Z,97443.91
2023-01-11T09:01:08.069Z,97448.61
2023-01-11T09:03:36.501Z,97445.02
2023-01-11T09:06:04.729Z,97433.15
2023-01-11T09:08:33.463Z,97438.38
2023-01-11T09:11:01.496Z,97439.38
2023-01-11T09:13:29.600Z,97435.88
2023-01-11T09:15:58.252Z,97426.42
2023-01-11T09:18:27.161Z,97427.17
2023-01-11T09:20:55.996Z,97419.89
2023-01-11T09:23:24.403Z,97423.88
2023-01-11T09:25:52.827Z,97435.33
2023-01-11T09:28:21.691Z,97438.48
2023-01-11T09:30:50.113Z,97434.98
2023-01-11T09:33:17.985Z,97425.08
2023-01-11T09:35:47.160Z,97412.91
2023-01-11T09:38:15.255Z,97396.65
2023-01-11T09:41:05.627Z,97398.54
2023-01-11T09:43:44.009Z,97401.35
2023-01-11T09:46:14.206Z,97396.92
2023-01-11T09:48:48.193Z,97403.79
2023-01-11T09:51:17.278Z,97417.64
2023-01-11T09:53:52.480Z,97432.70
2023-01-11T09:56:25.458Z,97445.14
2023-01-11T09:59:38.101Z,97430.21
2023-01-11T10:02:34.710Z,97420.75
2023-01-11T10:05:34.789Z,97422.20
2023-01-11T10:18:37.594Z,97423.08
2023-01-11T10:18:39.108Z,97425.45
2023-01-11T10:20:43.792Z,97428.28
2023-01-11T10:23:25.155Z,97435.43
2023-01-11T10:25:58.312Z,97442.00
2023-01-11T10:28:58.507Z,97435.38
2023-01-11T10:31:45.888Z,97439.45
2023-01-11T10:34:43.274Z,97439.71
2023-01-11T10:37:40.295Z,97446.83
2023-01-11T10:40:58.772Z,97445.33
2023-01-11T10:43:29.392Z,97450.55
2023-01-11T10:46:00.942Z,97448.79
2023-01-11T10:48:39.286Z,97444.27
2023-01-11T10:51:27.237Z,97443.05
2023-01-11T10:57:04.712Z,97436.48
2023-01-11T11:00:08.093Z,97433.04
2023-01-11T11:03:01.102Z,97426.55
2023-01-11T11:05:57.108Z,97423.27
2023-01-11T11:08:28.258Z,97425.85
2023-01-11T11:10:58.968Z,97425.98
2023-01-11T11:13:35.874Z,97420.75
2023-01-11T11:16:14.852Z,97416.22
2023-01-11T11:18:43.997Z,97421.41
2023-01-11T11:21:22.438Z,97431.27
2023-01-11T11:24:02.408Z,97432.31
2023-01-11T11:26:41.652Z,97438.29
2023-01-11T11:29:19.492Z,97444.81
2023-01-11T11:31:48.473Z,97440.84
2023-01-11T11:34:18.299Z,97436.52
2023-01-11T11:36:51.708Z,97433.66
2023-01-11T11:39:25.515Z,97429.86
2023-01-11T11:42:04.461Z,97433.60
2023-01-11T11:44:32.708Z,97433.80
2023-01-11T11:47:00.587Z,97437.06
2023-01-11T11:49:31.784Z,97437.44
2023-01-11T11:52:04.803Z,97436.85
2023-01-11T11:54:47.623Z,97440.08
2023-01-11T11:57:22.152Z,97436.07
2023-01-11T12:00:02.914Z,97437.65
2023-01-11T12:02:36.149Z,97434.46
2023-01-11T12:05:10.373Z,97437.44
2023-01-11T12:07:54.180Z,97444.95
2023-01-11T12:10:26.584Z,97446.13
2023-01-11T12:12:55.943Z,97446.88
2023-01-11T12:15:34.662Z,97443.29
2023-01-11T12:18:25.725Z,97445.27
2023-01-11T12:20:55.280Z,97445.96
2023-01-11T12:23:25.692Z,97447.64
2023-01-11T12:26:11.088Z,97443.92
2023-01-11T12:29:00.360Z,97440.75
2023-01-11T12:32:10.510Z,97430.60
2023-01-11T12:34:41.301Z,97440.31
2023-01-11T12:37:28.777Z,97448.52
2023-01-11T12:40:08.191Z,97454.70
2023-01-11T12:42:59.169Z,97464.94
2023-01-11T12:45:29.853Z,97465.19
2023-01-11T12:47:57.797Z,97459.23
2023-01-11T12:50:32.114Z,97457.82
2023-01-11T12:53:27.347Z,97450.55
2023-01-11T12:56:33.007Z,97446.55
2023-01-11T12:59:14.183Z,97449.48
2023-01-11T13:02:00.604Z,97448.17
2023-01-11T13:04:58.437Z,97444.52
2023-01-11T13:07:39.191Z,97443.38
2023-01-11T13:10:45.564Z,97446.68
2023-01-11T13:13:39.161Z,97456.28
2023-01-11T13:16:29.371Z,97462.90
2023-01-11T13:19:09.311Z,97463.27
2023-01-11T13:21:44.693Z,97464.35
2023-01-11T13:24:18.150Z,97468.10
2023-01-11T13:26:50.653Z,97468.60
2023-01-11T13:29:29.037Z,97472.11
2023-01-11T13:32:03.868Z,97471.34
2023-01-11T13:34:42.855Z,97476.86
2023-01-11T13:37:30.350Z,97480.88
2023-01-11T13:40:32.822Z,97484.60
2023-01-11T13:43:10.186Z,97491.61
2023-01-11T13:45:47.100Z,97491.88
2023-01-11T13:48:33.615Z,97490.35
2023-01-11T13:51:26.035Z,97492.91
2023-01-11T13:54:14.561Z,97490.11
2023-01-11T13:56:50.932Z,97485.58
2023-01-11T13:59:31.913Z,97482.42
2023-01-11T14:02:13.978Z,97478.95
2023-01-11T14:05:13.933Z,97478.85
2023-01-11T14:07:51.418Z,97476.80
2023-01-11T14:10:22.112Z,97478.80
2023-01-11T14:13:38.831Z,97480.64
2023-01-11T14:16:23.207Z,97485.89
2023-01-11T14:19:14.225Z,97490.20
2023-01-11T14:22:03.969Z,97487.38
2023-01-11T14:24:35.971Z,97483.96
2023-01-11T14:27:20.120Z,97484.56
2023-01-11T14:30:12.879Z,97481.47
2023-01-11T14:32:59.741Z,97483.83
2023-01-11T14:35:56.117Z,97489.29
2023-01-11T14:38:28.227Z,97496.00
2023-01-11T14:41:06.015Z,97494.02
2023-01-11T14:43:49.223Z,97492.53
2023-01-11T14:46:37.108Z,97496.83
2023-01-11T14:49:44.136Z,97503.70
2023-01-11T14:52:19.831Z,97502.88
2023-01-11T14:54:52.153Z,97505.04
2023-01-11T14:57:41.427Z,97505.27
2023-01-11T15:00:18.304Z,97504.20
2023-01-11T15:02:50.368Z,97507.90
2023-01-11T15:05:27.305Z,97509.20
2023-01-11T15:08:13.974Z,97510.52
2023-01-11T15:10:50.525Z,97514.01
2023-01-11T15:13:34.550Z,97511.05
2023-01-11T15:16:48.869Z,97501.94
2023-01-11T15:19:34.364Z,97493.89
2023-01-11T15:22:06.065Z,97500.63
2023-01-11T15:24:40.566Z,97506.64
2023-01-11T15:27:24.025Z,97515.45
2023-01-11T15:29:57.143Z,97513.86
2023-01-11T15:32:33.964Z,97514.98
2023-01-11T15:35:26.957Z,97514.88
2023-01-11T15:38:10.984Z,97520.42
2023-01-11T15:40:43.173Z,97527.77
2023-01-11T15:43:32.841Z,97520.50
2023-01-11T15:46:35.064Z,97515.02
2023-01-11T15:49:25.010Z,97515.02
2023-01-11T15:52:08.326Z,97521.24
2023-01-11T15:54:56.572Z,97524.75
2023-01-11T15:58:03.040Z,97531.70
2023-01-11T16:01:06.604Z,97538.16
2023-01-11T16:04:06.748Z,97544.64
2023-01-11T16:07:15.463Z,97537.42
2023-01-11T16:10:02.380Z,97525.05
2023-01-11T16:12:57.718Z,97511.96
2023-01-11T16:15:43.879Z,97512.84
2023-01-11T16:18:21.838Z,97519.27
2023-01-11T16:21:01.344Z,97522.25
2023-01-11T16:23:34.196Z,97524.16
2023-01-11T16:26:04.656Z,97519.51
2023-01-11T16:28:32.842Z,97514.03
2023-01-11T16:31:03.851Z,97516.39
2023-01-11T16:33:34.524Z,97514.36
2023-01-11T16:36:14.363Z,97517.44
2023-01-11T16:38:50.122Z,97516.64
2023-01-11T16:41:19.843Z,97524.72
2023-01-11T16:43:52.838Z,97524.85
2023-01-11T16:46:42.752Z,97527.75
2023-01-11T16:49:11.387Z,97529.73
2023-01-11T16:51:39.343Z,97535.34
2023-01-11T16:54:23.224Z,97538.73
2023-01-11T16:56:52.087Z,97545.17
2023-01-11T16:59:30.773Z,97554.30
2023-01-11T17:02:01.385Z,97557.48
2023-01-11T17:04:30.747Z,97559.21
2023-01-11T17:07:24.573Z,97565.83
2023-01-11T17:09:53.166Z,97563.76
2023-01-11T17:12:24.757Z,97568.98
2023-01-11T17:15:01.301Z,97568.29
2023-01-11T17:17:35.498Z,97569.59
2023-01-11T17:20:20.201Z,97568.02
2023-01-11T17:22:53.884Z,97573.16
2023-01-11T17:25:37.256Z,97573.06
2023-01-11T17:28:19.235Z,97572.05
2023-01-11T17:30:51.270Z,97569.32
2023-01-11T17:33:28.287Z,97569.81
2023-01-11T17:35:56.741Z,97569.98
2023-01-11T17:38:26.798Z,97572.82
2023-01-11T17:40:56.813Z,97576.32
2023-01-11T17:43:46.435Z,97574.06
2023-01-11T17:46:20.910Z,97575.73
2023-01-11T17:49:02.192Z,97577.41
2023-01-11T17:51:32.906Z,97584.97
2023-01-11T17:54:01.031Z,97588.02
2023-01-11T17:56:41.931Z,97586.42
2023-01-11T17:59:30.369Z,97585.62
2023-01-11T18:02:03.422Z,97590.23
2023-01-11T18:04:31.829Z,97596.09
2023-01-11T18:07:16.503Z,97598.48
2023-01-11T18:09:50.473Z,97600.95
2023-01-11T18:12:21.611Z,97604.86
2023-01-11T18:14:59.779Z,97605.08
2023-01-11T18:17:37.175Z,97602.95
2023-01-11T18:20:11.073Z,97607.01
2023-01-11T18:22:41.977Z,97605.92
2023-01-11T18:25:37.072Z,97610.17
2023-01-11T18:28:27.194Z,97606.81
2023-01-11T18:31:02.029Z,97612.70
2023-01-11T18:33:33.174Z,97612.54
2023-01-11T18:36:03.497Z,97614.11
2023-01-11T18:38:34.108Z,97609.83
2023-01-11T18:41:27.178Z,97614.39
2023-01-11T18:43:55.738Z,97611.55
2023-01-11T18:46:23.696Z,97602.50
2023-01-11T18:48:51.926Z,97599.89
2023-01-11T18:51:40.417Z,97595.49
2023-01-11T18:54:16.972Z,97592.67
2023-01-11T18:56:44.942Z,97591.98
2023-01-11T18:59:13.729Z,97593.11
2023-01-11T19:01:54.296Z,97601.16
2023-01-11T19:04:24.454Z,97598.00
2023-01-11T19:06:52.495Z,97601.38
2023-01-11T19:09:20.493Z,97607.70
2023-01-11T19:11:48.734Z,97611.34
2023-01-11T19:14:17.220Z,97615.24
2023-01-11T19:16:45.179Z,97622.20
2023-01-11T19:19:13.763Z,97631.07
2023-01-11T19:21:41.894Z,97640.05
2023-01-11T19:24:10.011Z,97642.08
2023-01-11T19:26:38.067Z,97644.89
2023-01-11T19:29:06.095Z,97650.29
2023-01-11T19:31:34.135Z,97652.47
2023-01-11T19:34:02.100Z,97658.98
2023-01-11T19:36:32.204Z,97657.80
2023-01-11T19:39:00.197Z,97656.29
2023-01-11T19:41:48.421Z,97655.27
2023-01-11T19:44:16.419Z,97649.11
2023-01-11T19:46:45.682Z,97647.89
2023-01-11T19:49:13.866Z,97651.08
2023-01-11T19:51:42.729Z,97649.05
2023-01-11T19:54:14.700Z,97655.09
2023-01-11T19:56:44.128Z,97656.16
2023-01-11T19:59:12.098Z,97656.27
2023-01-11T20:01:40.115Z,97653.49
2023-01-11T20:04:09.059Z,97656.05
2023-01-11T20:06:42.866Z,97661.89
2023-01-11T20:09:14.094Z,97669.97
2023-01-11T20:11:41.999Z,97671.57
2023-01-11T20:14:10.157Z,97673.50
2023-01-11T20:16:38.237Z,97666.45
2023-01-11T20:19:06.405Z,97662.39
2023-01-11T20:21:35.187Z,97657.15
2023-01-11T20:24:04.499Z,97653.24
2023-01-11T20:26:33.987Z,97652.77
2023-01-11T20:29:02.585Z,97649.59
2023-01-11T20:31:33.065Z,97654.19
2023-01-11T20:34:09.385Z,97664.18
2023-01-11T20:36:37.992Z,97669.41
2023-01-11T20:39:07.159Z,97671.05
2023-01-11T20:41:49.024Z,97668.70
2023-01-11T20:44:27.255Z,97667.77
2023-01-11T20:46:56.468Z,97673.96
2023-01-11T20:49:31.710Z,97683.58
2023-01-11T20:51:59.871Z,97689.45
2023-01-11T20:54:28.083Z,97700.17
2023-01-11T20:57:01.220Z,97708.33
2023-01-11T20:59:32.413Z,97716.01
2023-01-11T21:02:00.467Z,97723.74
2023-01-11T21:04:28.436Z,97723.67
2023-01-11T21:06:56.325Z,97721.70
2023-01-11T21:09:24.406Z,97721.58
2023-01-11T21:11:55.199Z,97711.79
2023-01-11T21:14:23.576Z,97702.57
2023-01-11T21:16:55.231Z,97698.54
2023-01-11T21:19:23.868Z,97704.08
2023-01-11T21:21:51.868Z,97713.70
2023-01-11T21:24:20.972Z,97713.45
2023-01-11T21:26:49.231Z,97709.52
2023-01-11T21:29:17.331Z,97709.58
2023-01-11T21:31:45.386Z,97724.54
2023-01-11T21:34:14.400Z,97728.06
2023-01-11T21:36:43.169Z,97723.84
2023-01-11T21:39:14.125Z,97723.52
2023-01-11T21:41:55.686Z,97723.84
2023-01-11T21:44:30.663Z,97727.34
2023-01-11T21:47:03.437Z,97720.98
2023-01-11T21:49:32.949Z,97715.27
2023-01-11T21:52:01.113Z,97710.07
2023-01-11T21:54:29.126Z,97716.85
2023-01-11T21:56:57.158Z,97717.48
2023-01-11T21:59:25.769Z,97705.55
2023-01-11T22:01:53.793Z,97697.02
2023-01-11T22:04:22.228Z,97702.73
2023-01-11T22:06:55.185Z,97700.22
2023-01-11T22:09:25.833Z,97689.89
2023-01-11T22:11:54.596Z,97685.84
2023-01-11T22:14:22.664Z,97690.84
2023-01-11T22:16:50.959Z,97691.56
2023-01-11T22:19:19.535Z,97687.88
2023-01-11T22:21:47.706Z,97692.22
2023-01-11T22:24:15.919Z,97691.17
2023-01-11T22:26:43.966Z,97692.15
2023-01-11T22:29:12.138Z,97697.17
2023-01-11T22:31:46.571Z,97696.34
2023-01-11T22:34:15.303Z,97695.79
2023-01-11T22:36:44.522Z,97693.96
2023-01-11T22:39:13.538Z,97688.48
2023-01-11T22:41:42.174Z,97693.02
2023-01-11T22:44:10.167Z,97693.30
2023-01-11T22:46:38.869Z,97693.56
2023-01-11T22:49:07.594Z,97690.45
2023-01-11T22:51:36.764Z,97695.43
2023-01-11T22:54:05.230Z,97700.33
2023-01-11T22:56:33.741Z,97700.88
2023-01-11T22:59:02.238Z,97702.23
2023-01-11T23:01:38.857Z,97701.14
2023-01-11T23:04:08.472Z,97701.59
2023-01-11T23:06:39.341Z,97706.80
2023-01-11T23:09:10.586Z,97706.41
2023-01-11T23:11:58.924Z,97709.48
2023-01-11T23:14:33.038Z,97704.89
2023-01-11T23:17:06.644Z,97704.58
2023-01-11T23:19:36.845Z,97702.66
2023-01-11T23:22:06.036Z,97691.34
2023-01-11T23:24:35.236Z,97680.16
2023-01-11T23:27:03.650Z,97673.30
2023-01-11T23:29:31.524Z,97671.13
2023-01-11T23:31:59.967Z,97672.11
2023-01-11T23:34:27.894Z,97682.34
2023-01-11T23:36:55.855Z,97687.58
2023-01-11T23:39:23.893Z,97696.73
2023-01-11T23:42:10.792Z,97701.94
2023-01-11T23:44:38.768Z,97704.98
2023-01-11T23:47:21.920Z,97705.65
2023-01-11T23:49:52.320Z,97702.23
2023-01-11T23:52:23.657Z,97693.06
2023-01-11T23:54:52.238Z,97697.02
2023-01-11T23:57:21.617Z,97701.38
2023-01-11T23:59:49.828Z,97701.10
